Terminal Aerodrome Forecast
Issued by NWS

Home | Current Version | Previous Version | Text Only | Print | Product List | Glossary On
Versions: 1 2 3 4 5 6 7 8 9 10 11 12 13 14
000
FTAK31 PAJN 202300
TAFAPG
TAF
PAPG 202322Z 2100/2124 15006KT P6SM -RA BKN030 OVC040
     FM210500 VRB04KT P6SM -RA SCT015 OVC030
     FM211500 VRB04KT P6SM VCSH SCT015 OVC030
      AMD LTD TO CLD VIS AND WIND 2106/2115=

USA.gov is the U.S. government's official web portal to all federal, state and local government web resources and services.